createdAt,value
2018-08-06T00:02:05.822Z,22.10
2018-08-06T00:04:33.043Z,22.00
2018-08-06T00:07:00.279Z,21.90
2018-08-06T00:09:27.469Z,21.90
2018-08-06T00:11:54.717Z,22.00
2018-08-06T00:14:21.884Z,21.90
2018-08-06T00:16:49.248Z,21.80
2018-08-06T00:19:16.465Z,21.80
2018-08-06T00:21:43.797Z,21.50
2018-08-06T00:24:11.143Z,21.40
2018-08-06T00:26:38.504Z,21.30
2018-08-06T00:29:05.658Z,21.30
2018-08-06T00:31:32.798Z,21.20
2018-08-06T00:33:59.993Z,21.20
2018-08-06T00:36:27.194Z,21.20
2018-08-06T00:38:54.379Z,21.20
2018-08-06T00:41:21.724Z,21.20
2018-08-06T00:43:48.903Z,21.10
2018-08-06T00:46:16.226Z,21.00
2018-08-06T00:48:43.439Z,20.90
2018-08-06T00:51:10.654Z,20.80
2018-08-06T00:53:37.891Z,20.90
2018-08-06T00:56:05.063Z,20.90
2018-08-06T00:58:32.269Z,21.00
2018-08-06T01:00:59.422Z,21.00
2018-08-06T01:03:26.603Z,21.00
2018-08-06T01:05:53.766Z,21.10
2018-08-06T01:08:20.919Z,21.10
2018-08-06T01:10:48.083Z,21.00
2018-08-06T01:13:15.335Z,21.00
2018-08-06T01:15:42.635Z,21.00
2018-08-06T01:18:10.059Z,21.10
2018-08-06T01:20:37.238Z,21.10
2018-08-06T01:23:04.381Z,21.10
2018-08-06T01:25:31.578Z,21.00
2018-08-06T01:27:58.740Z,21.00
2018-08-06T01:30:25.912Z,21.10
2018-08-06T01:32:53.111Z,21.10
2018-08-06T01:35:20.314Z,21.20
2018-08-06T01:37:47.485Z,21.00
2018-08-06T01:40:15.051Z,20.90
2018-08-06T01:42:42.424Z,20.90
2018-08-06T01:45:12.381Z,21.00
2018-08-06T01:47:39.584Z,20.90
2018-08-06T01:50:07.970Z,21.00
2018-08-06T01:52:35.109Z,20.90
2018-08-06T01:55:02.289Z,20.90
2018-08-06T01:57:29.433Z,20.80
2018-08-06T01:59:56.585Z,20.90
2018-08-06T02:02:23.769Z,20.80
2018-08-06T02:04:50.969Z,20.70
2018-08-06T02:07:18.157Z,20.80
2018-08-06T02:09:45.399Z,20.60
2018-08-06T02:12:12.661Z,20.70
2018-08-06T02:14:40.014Z,20.70
2018-08-06T02:17:07.177Z,20.80
2018-08-06T02:19:34.324Z,20.70
2018-08-06T02:22:01.463Z,20.70
2018-08-06T02:24:28.686Z,20.70
2018-08-06T02:26:55.849Z,20.60
2018-08-06T02:29:23.033Z,20.60
2018-08-06T02:31:50.180Z,20.50
2018-08-06T02:34:17.397Z,20.50
2018-08-06T02:36:44.584Z,20.40
2018-08-06T02:39:11.994Z,20.50
2018-08-06T02:41:39.601Z,20.60
2018-08-06T02:44:06.786Z,20.50
2018-08-06T02:46:34.073Z,20.50
2018-08-06T02:49:01.201Z,20.50
2018-08-06T02:51:28.373Z,20.50
2018-08-06T02:53:55.505Z,20.50
2018-08-06T02:56:22.610Z,20.40
2018-08-06T02:58:49.770Z,20.40
2018-08-06T03:01:16.997Z,20.30
2018-08-06T03:03:44.269Z,20.20
2018-08-06T03:06:11.668Z,20.20
2018-08-06T03:08:38.836Z,20.20
2018-08-06T03:11:05.995Z,20.30
2018-08-06T03:13:33.123Z,20.30
2018-08-06T03:16:00.255Z,20.20
2018-08-06T03:18:27.489Z,20.10
2018-08-06T03:20:54.681Z,20.10
2018-08-06T03:23:21.850Z,20.10
2018-08-06T03:25:49.057Z,20.10
2018-08-06T03:30:43.754Z,20.20
2018-08-06T03:33:11.069Z,20.10
2018-08-06T03:35:38.425Z,20.10
2018-08-06T03:38:05.642Z,20.10
2018-08-06T03:40:32.796Z,20.10
2018-08-06T03:42:59.956Z,20.00
2018-08-06T03:45:27.131Z,19.90
2018-08-06T03:47:54.249Z,19.90
2018-08-06T03:50:21.432Z,19.80
2018-08-06T03:52:48.630Z,19.90
2018-08-06T03:55:15.855Z,19.80
2018-08-06T03:57:43.052Z,19.80
2018-08-06T04:00:12.422Z,19.70
2018-08-06T04:02:39.966Z,19.70
2018-08-06T04:05:08.860Z,19.80
2018-08-06T04:07:36.260Z,19.80
2018-08-06T04:10:03.847Z,19.90
2018-08-06T04:12:30.995Z,19.80
2018-08-06T04:14:58.147Z,19.90
2018-08-06T04:17:25.261Z,19.80
2018-08-06T04:19:52.463Z,19.70
2018-08-06T04:22:19.633Z,19.80
2018-08-06T04:24:46.821Z,19.80
2018-08-06T04:27:13.989Z,19.80
2018-08-06T04:29:41.376Z,19.80
2018-08-06T04:32:08.651Z,19.80
2018-08-06T04:34:35.774Z,19.80
2018-08-06T04:37:02.962Z,19.90
2018-08-06T04:39:30.091Z,19.90
2018-08-06T04:41:57.271Z,20.10
2018-08-06T04:44:24.486Z,20.10
2018-08-06T04:46:51.688Z,20.10
2018-08-06T04:49:18.876Z,20.00
2018-08-06T04:51:46.170Z,20.20
2018-08-06T04:54:13.551Z,20.20
2018-08-06T04:56:40.951Z,20.40
2018-08-06T04:59:08.107Z,20.50
2018-08-06T05:01:35.212Z,20.50
2018-08-06T05:04:02.346Z,20.70
2018-08-06T05:06:29.463Z,21.20
2018-08-06T05:08:56.712Z,21.70
2018-08-06T05:11:23.835Z,22.20
2018-08-06T05:13:50.953Z,22.20
2018-08-06T05:16:18.170Z,22.70
2018-08-06T05:18:45.371Z,22.70
2018-08-06T05:21:12.528Z,23.80
2018-08-06T05:23:49.418Z,25.00
2018-08-06T05:26:16.751Z,25.90
2018-08-06T05:28:43.988Z,27.10
2018-08-06T05:31:11.231Z,29.70
2018-08-06T05:33:38.709Z,31.10
2018-08-06T05:36:05.882Z,32.70
2018-08-06T05:38:33.064Z,33.60
2018-08-06T05:41:00.211Z,34.30
2018-08-06T05:43:27.361Z,34.50
2018-08-06T05:45:54.520Z,35.10
2018-08-06T05:48:21.692Z,35.60
2018-08-06T05:50:48.830Z,35.80
2018-08-06T05:53:16.059Z,36.00
2018-08-06T05:55:43.389Z,37.00
2018-08-06T05:58:10.686Z,37.10
2018-08-06T06:00:37.845Z,38.00
2018-08-06T06:03:05.010Z,36.90
2018-08-06T06:05:32.178Z,35.80
2018-08-06T06:07:59.350Z,35.10
2018-08-06T06:10:26.715Z,36.60
2018-08-06T06:12:53.925Z,37.80
2018-08-06T06:15:21.221Z,38.40
2018-08-06T06:17:48.467Z,35.50
2018-08-06T06:20:15.709Z,36.60
2018-08-06T06:22:42.959Z,35.50
2018-08-06T06:25:11.654Z,36.70
2018-08-06T06:27:38.904Z,37.80
2018-08-06T06:30:07.753Z,38.80
2018-08-06T06:32:34.903Z,39.60
2018-08-06T06:35:02.051Z,40.30
2018-08-06T06:37:29.163Z,39.40
2018-08-06T06:39:56.301Z,39.50
2018-08-06T06:42:23.433Z,38.90
2018-08-06T06:44:50.629Z,38.00
2018-08-06T06:47:17.868Z,38.30
2018-08-06T06:49:45.084Z,38.30
2018-08-06T06:52:12.314Z,39.40
2018-08-06T06:54:39.662Z,39.20
2018-08-06T06:57:06.830Z,39.60
2018-08-06T06:59:33.999Z,39.20
2018-08-06T07:02:01.189Z,39.20
2018-08-06T07:04:28.438Z,39.30
2018-08-06T07:06:55.609Z,39.50
2018-08-06T07:09:22.759Z,41.00
2018-08-06T07:11:50.305Z,41.10
2018-08-06T07:14:17.621Z,39.10
2018-08-06T07:16:44.867Z,38.50
2018-08-06T07:19:12.118Z,38.30
2018-08-06T07:21:39.443Z,39.60
2018-08-06T07:24:06.631Z,40.60
2018-08-06T07:26:33.953Z,39.30
2018-08-06T07:29:01.166Z,38.80
2018-08-06T07:31:28.469Z,38.60
2018-08-06T07:33:55.633Z,39.40
2018-08-06T07:36:22.787Z,40.90
2018-08-06T07:38:50.009Z,39.70
2018-08-06T07:43:44.716Z,40.10
2018-08-06T07:46:12.013Z,41.40
2018-08-06T07:48:39.438Z,41.60
2018-08-06T07:51:06.618Z,43.20
2018-08-06T07:53:33.922Z,43.70
2018-08-06T07:56:01.130Z,45.10
2018-08-06T07:58:28.323Z,44.90
2018-08-06T08:00:55.477Z,45.80
2018-08-06T08:03:22.618Z,46.20
2018-08-06T08:05:49.813Z,45.00
2018-08-06T08:08:17.193Z,44.10
2018-08-06T08:10:44.431Z,42.90
2018-08-06T08:13:11.703Z,41.10
2018-08-06T08:15:39.628Z,41.10
2018-08-06T08:18:06.789Z,41.10
2018-08-06T08:20:33.966Z,41.00
2018-08-06T08:23:01.185Z,40.70
2018-08-06T08:25:28.376Z,41.20
2018-08-06T08:27:55.585Z,41.50
2018-08-06T08:30:22.763Z,40.00
2018-08-06T08:32:49.968Z,41.10
2018-08-06T08:37:44.693Z,42.80
2018-08-06T08:40:15.429Z,42.10
2018-08-06T08:42:43.132Z,40.60
2018-08-06T08:45:13.216Z,41.30
2018-08-06T08:47:41.416Z,41.60
2018-08-06T08:52:38.010Z,43.40
2018-08-06T08:55:05.417Z,43.30
2018-08-06T08:57:32.807Z,43.30
2018-08-06T08:59:59.960Z,43.40
2018-08-06T09:02:27.107Z,41.40
2018-08-06T09:04:54.244Z,40.70
2018-08-06T09:07:21.472Z,40.20
2018-08-06T09:09:48.893Z,39.40
2018-08-06T09:12:16.065Z,39.90
2018-08-06T09:14:43.481Z,39.40
2018-08-06T09:17:10.622Z,39.90
2018-08-06T09:19:37.746Z,39.50
2018-08-06T09:22:04.980Z,38.60
2018-08-06T09:24:32.154Z,38.10
2018-08-06T09:26:59.416Z,36.80
2018-08-06T09:29:26.605Z,35.60
2018-08-06T09:31:53.898Z,34.70
2018-08-06T09:34:21.049Z,33.70
2018-08-06T09:36:48.206Z,32.80
2018-08-06T09:39:15.333Z,32.30
2018-08-06T09:41:42.501Z,31.80
2018-08-06T09:44:09.669Z,31.30
2018-08-06T09:46:36.824Z,30.80
2018-08-06T09:49:04.619Z,30.50
2018-08-06T09:51:31.841Z,30.40
2018-08-06T09:53:59.040Z,30.40
2018-08-06T09:56:26.186Z,29.90
2018-08-06T09:58:53.361Z,29.50
2018-08-06T10:01:26.152Z,29.50
2018-08-06T10:03:53.304Z,29.70
2018-08-06T10:06:20.567Z,29.80
2018-08-06T10:08:47.666Z,29.90
2018-08-06T10:11:14.814Z,29.70
2018-08-06T10:13:41.989Z,29.80
2018-08-06T10:16:09.225Z,30.00
2018-08-06T10:18:36.381Z,30.00
2018-08-06T10:21:03.833Z,30.20
2018-08-06T10:23:31.060Z,30.20
2018-08-06T10:25:58.262Z,30.00
2018-08-06T10:28:25.438Z,30.00
2018-08-06T10:30:52.592Z,29.90
2018-08-06T10:33:19.889Z,30.00
2018-08-06T10:35:47.010Z,30.00
2018-08-06T10:38:14.148Z,30.00
2018-08-06T10:40:41.304Z,29.60
2018-08-06T10:43:08.468Z,29.60
2018-08-06T10:45:35.593Z,29.70
2018-08-06T10:48:02.804Z,29.60
2018-08-06T10:50:30.076Z,29.70
2018-08-06T10:52:57.267Z,29.70
2018-08-06T10:55:24.394Z,29.60
2018-08-06T10:57:51.541Z,29.50
2018-08-06T11:00:21.738Z,29.20
2018-08-06T11:02:49.141Z,29.40
2018-08-06T11:05:16.905Z,29.30
2018-08-06T11:07:44.075Z,29.50
2018-08-06T11:10:14.609Z,29.80
2018-08-06T11:12:41.778Z,30.10
2018-08-06T11:15:14.577Z,30.30
2018-08-06T11:17:41.749Z,30.20
2018-08-06T11:20:10.762Z,30.40
2018-08-06T11:22:38.201Z,30.20
2018-08-06T11:25:05.926Z,30.30
2018-08-06T11:27:33.485Z,30.50
2018-08-06T11:30:00.844Z,30.50
2018-08-06T11:32:35.047Z,30.60
2018-08-06T11:35:03.154Z,30.60
2018-08-06T11:37:30.381Z,30.40
2018-08-06T11:39:57.633Z,30.20
2018-08-06T11:42:24.777Z,30.50
2018-08-06T11:47:19.057Z,30.40
2018-08-06T11:49:46.197Z,30.50
2018-08-06T11:52:13.354Z,30.50
2018-08-06T11:54:40.502Z,30.20
2018-08-06T11:57:07.789Z,30.30
2018-08-06T11:59:35.089Z,30.50
2018-08-06T12:02:02.633Z,30.70
2018-08-06T12:04:30.013Z,30.90
2018-08-06T12:06:57.417Z,30.90
2018-08-06T12:09:24.592Z,30.70
2018-08-06T12:11:51.725Z,30.80
2018-08-06T12:14:18.890Z,30.90
2018-08-06T12:16:46.019Z,31.00
2018-08-06T12:19:13.158Z,31.00
2018-08-06T12:21:40.309Z,31.10
2018-08-06T12:24:07.461Z,31.00
2018-08-06T12:26:34.658Z,31.00
2018-08-06T12:29:01.876Z,31.10
2018-08-06T12:31:29.192Z,31.20
2018-08-06T12:33:56.560Z,31.40
2018-08-06T12:36:23.741Z,31.40
2018-08-06T12:39:06.300Z,31.40
2018-08-06T12:41:33.459Z,31.60
2018-08-06T12:44:00.701Z,31.50
2018-08-06T12:46:28.059Z,31.30
2018-08-06T12:48:55.233Z,31.20
2018-08-06T12:51:22.589Z,31.30
2018-08-06T12:53:49.738Z,31.40
2018-08-06T12:56:16.911Z,31.60
2018-08-06T12:58:44.095Z,31.80
2018-08-06T13:01:11.277Z,31.80
2018-08-06T13:03:38.457Z,31.70
2018-08-06T13:08:32.925Z,31.80
2018-08-06T13:11:00.178Z,31.80
2018-08-06T13:13:27.431Z,31.90
2018-08-06T13:15:54.585Z,31.90
2018-08-06T13:18:21.740Z,31.90
2018-08-06T13:20:48.898Z,32.00
2018-08-06T13:23:16.117Z,31.90
2018-08-06T13:25:43.291Z,32.00
2018-08-06T13:28:10.426Z,32.00
2018-08-06T13:30:37.574Z,32.10
2018-08-06T13:33:04.950Z,32.10
2018-08-06T13:35:32.224Z,32.20
2018-08-06T13:37:59.479Z,32.20
2018-08-06T13:40:26.665Z,32.10
2018-08-06T13:42:53.765Z,32.10
2018-08-06T13:45:20.920Z,32.10
2018-08-06T13:47:48.045Z,32.00
2018-08-06T13:50:15.218Z,32.10
2018-08-06T13:52:42.377Z,32.10
2018-08-06T13:55:10.875Z,32.20
2018-08-06T13:57:38.270Z,32.20
2018-08-06T14:00:08.670Z,32.20
2018-08-06T14:02:35.934Z,32.40
2018-08-06T14:05:03.413Z,32.60
2018-08-06T14:07:30.646Z,32.70
2018-08-06T14:12:25.058Z,32.80
2018-08-06T14:14:52.193Z,32.80
2018-08-06T14:17:19.384Z,32.80
2018-08-06T14:19:46.564Z,32.80
2018-08-06T14:22:13.766Z,32.80
2018-08-06T14:24:40.931Z,32.90
2018-08-06T14:27:08.090Z,33.00
2018-08-06T14:29:35.257Z,32.80
2018-08-06T14:32:02.499Z,32.80
2018-08-06T14:34:29.695Z,32.70
2018-08-06T14:36:57.302Z,32.70
2018-08-06T14:39:24.451Z,32.70
2018-08-06T14:41:51.579Z,32.70
2018-08-06T14:44:18.706Z,32.60
2018-08-06T14:46:45.860Z,32.60
2018-08-06T14:49:13.038Z,32.60
2018-08-06T14:51:40.166Z,32.60
2018-08-06T14:54:07.329Z,32.60
2018-08-06T14:56:34.494Z,32.70
2018-08-06T14:59:01.855Z,32.80
2018-08-06T15:01:29.195Z,32.70
2018-08-06T15:03:56.348Z,32.70
2018-08-06T15:06:23.497Z,32.70
2018-08-06T15:08:50.806Z,32.80
2018-08-06T15:11:17.934Z,32.70
2018-08-06T15:13:45.054Z,32.80
2018-08-06T15:16:12.257Z,32.90
2018-08-06T15:18:39.370Z,32.90
2018-08-06T15:21:06.729Z,33.00
2018-08-06T15:23:33.938Z,33.00
2018-08-06T15:28:28.404Z,32.90
2018-08-06T15:30:55.589Z,32.80
2018-08-06T15:33:22.744Z,32.70
2018-08-06T15:35:49.915Z,32.80
2018-08-06T15:38:17.043Z,32.80
2018-08-06T15:40:44.197Z,32.70
2018-08-06T15:43:11.351Z,32.70
2018-08-06T15:45:38.506Z,32.60
2018-08-06T15:48:06.069Z,32.60
2018-08-06T15:50:33.451Z,32.60
2018-08-06T15:55:28.071Z,32.80
2018-08-06T16:00:22.434Z,32.80
2018-08-06T16:02:49.623Z,32.80
2018-08-06T16:05:16.775Z,32.90
2018-08-06T16:07:44.250Z,33.10
2018-08-06T16:10:12.241Z,33.20
2018-08-06T16:12:39.601Z,33.30
2018-08-06T16:15:08.597Z,33.30
2018-08-06T16:17:36.246Z,33.30
2018-08-06T16:20:05.457Z,33.40
2018-08-06T16:22:32.752Z,33.50
2018-08-06T16:24:59.951Z,33.40
2018-08-06T16:27:27.136Z,33.40
2018-08-06T16:29:54.293Z,33.40
2018-08-06T16:32:21.432Z,33.40
2018-08-06T16:34:48.590Z,33.40
2018-08-06T16:37:15.833Z,33.40
2018-08-06T16:39:42.966Z,33.30
2018-08-06T16:42:10.101Z,33.20
2018-08-06T16:44:37.285Z,33.10
2018-08-06T16:47:04.456Z,33.00
2018-08-06T16:49:32.020Z,32.90
2018-08-06T16:51:59.280Z,32.80
2018-08-06T16:54:26.439Z,32.80
2018-08-06T16:56:53.600Z,32.70
2018-08-06T16:59:20.744Z,32.70
2018-08-06T17:01:47.861Z,32.60
2018-08-06T17:04:14.989Z,32.60
2018-08-06T17:06:42.151Z,32.50
2018-08-06T17:09:09.541Z,32.30
2018-08-06T17:11:36.738Z,32.20
2018-08-06T17:14:04.373Z,32.10
2018-08-06T17:16:31.660Z,32.00
2018-08-06T17:18:58.833Z,31.90
2018-08-06T17:21:25.993Z,31.80
2018-08-06T17:23:53.142Z,31.80
2018-08-06T17:26:20.303Z,31.70
2018-08-06T17:28:47.444Z,31.60
2018-08-06T17:31:14.597Z,31.60
2018-08-06T17:36:08.888Z,31.40
2018-08-06T17:38:36.211Z,31.40
2018-08-06T17:41:03.443Z,31.30
2018-08-06T17:43:30.633Z,31.40
2018-08-06T17:45:57.901Z,31.30
2018-08-06T17:48:25.014Z,31.20
2018-08-06T17:50:52.113Z,31.10
2018-08-06T17:53:19.294Z,31.10
2018-08-06T17:55:46.439Z,30.90
2018-08-06T17:58:13.582Z,30.90
2018-08-06T18:00:40.712Z,30.80
2018-08-06T18:03:07.854Z,30.70
2018-08-06T18:05:35.101Z,30.60
2018-08-06T18:10:30.032Z,30.50
2018-08-06T18:12:57.248Z,30.40
2018-08-06T18:15:24.366Z,30.30
2018-08-06T18:17:51.508Z,30.20
2018-08-06T18:20:19.033Z,30.20
2018-08-06T18:22:46.290Z,30.20
2018-08-06T18:25:15.039Z,30.10
2018-08-06T18:27:42.861Z,30.00
2018-08-06T18:30:13.366Z,29.90
2018-08-06T18:32:40.577Z,29.80
2018-08-06T18:35:09.206Z,29.70
2018-08-06T18:37:36.358Z,29.70
2018-08-06T18:40:04.057Z,29.60
2018-08-06T18:42:31.217Z,29.60
2018-08-06T18:44:58.512Z,29.40
2018-08-06T18:47:25.645Z,29.30
2018-08-06T18:49:52.817Z,29.20
2018-08-06T18:52:19.971Z,29.00
2018-08-06T18:54:47.130Z,28.90
2018-08-06T18:57:14.258Z,28.80
2018-08-06T18:59:41.450Z,28.80
2018-08-06T19:02:08.605Z,28.70
2018-08-06T19:04:35.951Z,28.60
2018-08-06T19:07:03.334Z,28.40
2018-08-06T19:09:30.618Z,28.40
2018-08-06T19:12:03.761Z,28.30
2018-08-06T19:14:31.257Z,28.20
2018-08-06T19:16:58.530Z,28.10
2018-08-06T19:19:27.298Z,28.00
2018-08-06T19:21:55.325Z,27.90
2018-08-06T19:24:28.193Z,27.80
2018-08-06T19:26:55.416Z,27.80
2018-08-06T19:29:22.993Z,27.70
2018-08-06T19:31:50.126Z,27.70
2018-08-06T19:34:17.232Z,27.60
2018-08-06T19:36:50.313Z,27.50
2018-08-06T19:39:17.551Z,27.40
2018-08-06T19:41:45.113Z,27.30
2018-08-06T19:44:12.287Z,27.20
2018-08-06T19:46:39.420Z,27.30
2018-08-06T19:49:12.502Z,27.30
2018-08-06T19:51:39.838Z,27.20
2018-08-06T19:54:07.026Z,27.20
2018-08-06T19:56:34.157Z,27.20
2018-08-06T19:59:01.344Z,27.10
2018-08-06T20:01:28.780Z,27.00
2018-08-06T20:03:56.026Z,26.90
2018-08-06T20:06:23.157Z,26.80
2018-08-06T20:08:50.566Z,26.80
2018-08-06T20:11:17.842Z,26.80
2018-08-06T20:13:45.002Z,26.80
2018-08-06T20:16:12.189Z,26.80
2018-08-06T20:18:39.323Z,26.80
2018-08-06T20:21:06.478Z,26.80
2018-08-06T20:23:33.672Z,26.70
2018-08-06T20:26:00.857Z,26.70
2018-08-06T20:28:28.101Z,26.60
2018-08-06T20:30:55.345Z,26.60
2018-08-06T20:33:22.623Z,26.60
2018-08-06T20:35:49.750Z,26.50
2018-08-06T20:38:16.877Z,26.50
2018-08-06T20:40:44.021Z,26.50
2018-08-06T20:43:11.222Z,26.60
2018-08-06T20:45:38.377Z,26.50
2018-08-06T20:48:05.837Z,26.50
2018-08-06T20:50:33.085Z,26.40
2018-08-06T20:53:00.329Z,26.50
2018-08-06T20:55:27.831Z,26.50
2018-08-06T20:57:55.002Z,26.40
2018-08-06T21:00:24.064Z,26.40
2018-08-06T21:02:51.496Z,26.40
2018-08-06T21:05:18.917Z,26.40
2018-08-06T21:07:46.117Z,26.50
2018-08-06T21:10:14.457Z,26.50
2018-08-06T21:15:10.017Z,26.50
2018-08-06T21:17:37.373Z,26.50
2018-08-06T21:20:06.349Z,26.50
2018-08-06T21:22:33.456Z,26.60
2018-08-06T21:25:00.578Z,26.60
2018-08-06T21:29:54.926Z,26.50
2018-08-06T21:32:22.093Z,26.50
2018-08-06T21:34:49.211Z,26.30
2018-08-06T21:37:16.400Z,26.20
2018-08-06T21:39:43.620Z,26.10
2018-08-06T21:42:10.796Z,26.00
2018-08-06T21:44:37.968Z,26.10
2018-08-06T21:47:05.089Z,26.10
2018-08-06T21:49:32.254Z,26.00
2018-08-06T21:51:59.424Z,25.90
2018-08-06T21:54:26.568Z,25.90
2018-08-06T21:56:53.689Z,25.80
2018-08-06T21:59:20.809Z,25.80
2018-08-06T22:01:47.992Z,25.80
2018-08-06T22:04:15.197Z,25.90
2018-08-06T22:06:42.409Z,25.90
2018-08-06T22:09:11.777Z,25.80
2018-08-06T22:11:38.969Z,25.70
2018-08-06T22:14:06.945Z,25.60
2018-08-06T22:16:34.313Z,25.60
2018-08-06T22:19:01.524Z,25.60
2018-08-06T22:21:28.601Z,25.50
2018-08-06T22:23:55.725Z,25.40
2018-08-06T22:26:22.885Z,25.40
2018-08-06T22:28:50.146Z,25.40
2018-08-06T22:31:17.383Z,25.30
2018-08-06T22:33:44.607Z,25.20
2018-08-06T22:36:11.809Z,25.20
2018-08-06T22:38:38.945Z,25.10
2018-08-06T22:43:33.285Z,25.00
2018-08-06T22:48:27.545Z,25.00
2018-08-06T22:50:54.696Z,24.90
2018-08-06T22:53:21.860Z,24.80
2018-08-06T22:55:59.573Z,24.80
2018-08-06T22:58:26.714Z,24.90
2018-08-06T23:00:53.846Z,24.80
2018-08-06T23:03:20.976Z,24.80
2018-08-06T23:05:48.156Z,24.70
2018-08-06T23:08:15.403Z,24.60
2018-08-06T23:10:42.821Z,24.50
2018-08-06T23:13:09.969Z,24.40
2018-08-06T23:15:37.073Z,24.40
2018-08-06T23:18:04.860Z,24.20
2018-08-06T23:20:31.997Z,24.20
2018-08-06T23:22:59.111Z,24.10
2018-08-06T23:25:26.243Z,24.10
2018-08-06T23:27:53.381Z,24.10
2018-08-06T23:30:20.558Z,24.00
2018-08-06T23:32:47.705Z,24.00
2018-08-06T23:35:14.946Z,24.00
2018-08-06T23:37:43.221Z,23.90
2018-08-06T23:40:11.527Z,24.00
2018-08-06T23:42:40.401Z,24.10
2018-08-06T23:45:09.185Z,24.10
2018-08-06T23:47:37.209Z,24.10
2018-08-06T23:50:05.574Z,24.10
2018-08-06T23:52:32.729Z,24.10
2018-08-06T23:54:59.845Z,24.00
2018-08-06T23:57:26.953Z,23.90
2018-08-06T23:59:54.101Z,23.80
